Terminal Aerodrome Forecast
Issued by NWS

Home | Current Version | Previous Version | Graphics & Text | Print | Product List | Glossary On
Versions: 1 2 3 4 5 6 7 8 9 10 11 12 13 14 15 16
000
FTUS43 KGRB 181500 AAA
TAFATW
TAF AMD
KATW 181513Z 1815/1912 35015G21KT P6SM BKN019
      TEMPO 1815/1818 SCT019 BKN050
     FM181800 35012G19KT P6SM SCT050
     FM182200 36005KT P6SM SKC=

USA.gov is the U.S. government's official web portal to all federal, state and local government web resources and services.